Time;durP1;ratioP1;P1;durP2;ratioP2;P2;SDS_P1;SDS_P2;PMS_P1;PMS_P2;Temp;Humidity;BMP_temperature;BMP_pressure;BME280_temperature;BME280_humidity;BME280_pressure;Samples;Min_cycle;Max_cycle;Signal;HPM_P1;HPM_P2
2022/12/28 00:00:19;;;;;;;10.40;7.60;;;;;;;;;;5107514;28;20031;-76
2022/12/28 00:03:04;;;;;;;10.02;7.45;;;;;;;;;;5078117;28;20087;-77
2022/12/28 00:05:50;;;;;;;10.77;7.55;;;;;;;;;;5074252;28;20020;-76
2022/12/28 00:08:36;;;;;;;11.45;7.47;;;;;;;;;;5074234;28;20027;-77
2022/12/28 00:11:23;;;;;;;9.43;7.35;;;;;;;;;;5074089;28;20031;-76
2022/12/28 00:14:08;;;;;;;11.93;8.43;;;;;;;;;;5078494;28;20082;-77
2022/12/28 00:16:54;;;;;;;10.68;7.72;;;;;;;;;;5080305;28;20117;-77
2022/12/28 00:19:39;;;;;;;13.38;8.20;;;;;;;;;;5080028;28;20021;-76
2022/12/28 00:22:26;;;;;;;11.20;7.75;;;;;;;;;;5064844;28;20034;-76
2022/12/28 00:25:11;;;;;;;11.15;7.90;;;;;;;;;;5081344;28;20020;-76
2022/12/28 00:27:57;;;;;;;11.63;8.27;;;;;;;;;;5066110;28;20031;-76
2022/12/28 00:30:42;;;;;;;14.23;8.75;;;;;;;;;;5065575;28;20020;-77
2022/12/28 00:33:28;;;;;;;12.15;8.20;;;;;;;;;;5080137;28;20342;-77
2022/12/28 00:36:14;;;;;;;10.48;7.13;;;;;;;;;;5080641;28;20058;-77
2022/12/28 00:39:00;;;;;;;11.30;8.10;;;;;;;;;;5065242;28;20017;-76
2022/12/28 00:41:46;;;;;;;12.38;8.43;;;;;;;;;;5080272;28;20455;-76
2022/12/28 00:44:31;;;;;;;13.05;8.02;;;;;;;;;;5081011;28;20050;-77
2022/12/28 00:47:17;;;;;;;10.88;7.60;;;;;;;;;;5079801;28;20397;-76
2022/12/28 00:50:02;;;;;;;10.75;7.70;;;;;;;;;;5080269;28;20021;-76
2022/12/28 00:52:48;;;;;;;9.95;7.20;;;;;;;;;;5079235;28;20023;-77
2022/12/28 00:55:34;;;;;;;10.02;7.38;;;;;;;;;;5080104;28;20454;-76
2022/12/28 00:58:20;;;;;;;9.73;7.40;;;;;;;;;;5080737;28;20513;-77
2022/12/28 01:01:09;;;;;;;9.23;6.78;;;;;;;;;;5085823;28;20075;-76
2022/12/28 01:03:55;;;;;;;10.93;7.25;;;;;;;;;;5099821;28;20081;-76
2022/12/28 01:06:41;;;;;;;9.60;6.72;;;;;;;;;;5100198;28;20020;-76
2022/12/28 01:09:27;;;;;;;10.40;7.18;;;;;;;;;;5100047;28;20438;-75
2022/12/28 01:12:13;;;;;;;10.98;7.18;;;;;;;;;;5101042;28;20047;-76
2022/12/28 01:14:59;;;;;;;9.32;6.60;;;;;;;;;;5100046;28;20030;-76
2022/12/28 01:17:44;;;;;;;10.52;6.63;;;;;;;;;;5100893;28;20349;-77
2022/12/28 01:20:30;;;;;;;9.10;6.72;;;;;;;;;;5100842;28;20048;-76
2022/12/28 01:23:16;;;;;;;9.40;6.78;;;;;;;;;;5099854;28;20020;-76
2022/12/28 01:26:02;;;;;;;9.50;6.20;;;;;;;;;;5080769;28;20020;-75
2022/12/28 01:28:47;;;;;;;10.35;6.38;;;;;;;;;;5096148;28;20077;-76
2022/12/28 01:31:33;;;;;;;8.23;6.28;;;;;;;;;;5096748;28;20016;-76
2022/12/28 01:34:18;;;;;;;9.70;6.95;;;;;;;;;;5096516;28;20457;-75
2022/12/28 01:37:04;;;;;;;10.55;6.45;;;;;;;;;;5080604;28;20024;-76
2022/12/28 01:39:50;;;;;;;8.57;6.22;;;;;;;;;;5081518;28;20039;-76
2022/12/28 01:42:37;;;;;;;9.57;6.38;;;;;;;;;;5082387;28;20058;-77
2022/12/28 01:45:23;;;;;;;8.77;6.00;;;;;;;;;;5096472;28;20038;-75
2022/12/28 01:48:15;;;;;;;7.82;5.85;;;;;;;;;;5096814;28;20020;-76
2022/12/28 01:51:01;;;;;;;10.02;6.22;;;;;;;;;;5096588;28;20024;-76
2022/12/28 01:53:47;;;;;;;9.52;6.88;;;;;;;;;;5096212;28;20354;-76
2022/12/28 01:56:33;;;;;;;9.25;6.40;;;;;;;;;;5096340;28;20465;-76
2022/12/28 01:59:20;;;;;;;9.45;6.72;;;;;;;;;;5097030;28;20051;-77
2022/12/28 02:02:07;;;;;;;12.13;7.30;;;;;;;;;;5095640;28;20056;-76
2022/12/28 02:04:53;;;;;;;10.43;7.15;;;;;;;;;;5095778;28;20070;-76
2022/12/28 02:07:47;;;;;;;10.60;7.43;;;;;;;;;;5096044;28;20028;-75
2022/12/28 02:10:34;;;;;;;10.70;7.90;;;;;;;;;;5080598;28;20504;-76
2022/12/28 02:13:21;;;;;;;13.98;7.90;;;;;;;;;;5095923;28;20016;-76
2022/12/28 02:16:08;;;;;;;11.63;7.57;;;;;;;;;;5096030;28;20354;-77
2022/12/28 02:18:54;;;;;;;12.32;8.13;;;;;;;;;;5095387;28;20032;-76
2022/12/28 02:21:51;;;;;;;12.02;8.75;;;;;;;;;;5096223;28;20020;-76
2022/12/28 02:24:55;;;;;;;12.23;7.25;;;;;;;;;;5095006;28;20038;-75
2022/12/28 02:27:43;;;;;;;10.63;6.13;;;;;;;;;;5095624;28;20051;-76
2022/12/28 02:30:31;;;;;;;7.90;5.28;;;;;;;;;;5094738;28;20027;-76
2022/12/28 02:33:21;;;;;;;7.38;5.10;;;;;;;;;;5095089;28;20020;-75
2022/12/28 02:36:11;;;;;;;6.70;4.22;;;;;;;;;;5080410;28;20016;-75
2022/12/28 02:39:14;;;;;;;7.20;3.80;;;;;;;;;;5082125;28;20024;-76
2022/12/28 02:42:00;;;;;;;5.50;3.50;;;;;;;;;;5095213;28;20346;-75
2022/12/28 02:51:03;;;;;;;4.50;2.67;;;;;;;;;;5095392;28;20027;-76
2022/12/28 02:54:04;;;;;;;6.80;2.83;;;;;;;;;;5094656;28;20095;-76
2022/12/28 02:56:54;;;;;;;6.00;2.80;;;;;;;;;;5079943;28;20039;-76
2022/12/28 02:59:40;;;;;;;7.60;2.47;;;;;;;;;;5079903;28;20039;-75
2022/12/28 03:02:34;;;;;;;6.57;2.35;;;;;;;;;;5094534;28;20044;-75
2022/12/28 03:08:53;;;;;;;8.00;2.40;;;;;;;;;;5095566;28;20038;-75
2022/12/28 03:11:41;;;;;;;6.68;2.22;;;;;;;;;;5094215;28;20048;-76
2022/12/28 03:14:45;;;;;;;5.10;2.15;;;;;;;;;;5095043;28;20085;-75
2022/12/28 03:33:05;;;;;;;7.30;2.45;;;;;;;;;;5095170;28;20020;-75
2022/12/28 03:35:50;;;;;;;5.13;2.20;;;;;;;;;;5094197;28;20095;-75
2022/12/28 03:38:43;;;;;;;5.00;1.92;;;;;;;;;;5094768;28;20136;-75
2022/12/28 03:41:31;;;;;;;7.75;2.63;;;;;;;;;;5093498;28;20469;-75
2022/12/28 03:44:20;;;;;;;5.63;2.35;;;;;;;;;;5094077;28;20442;-76
2022/12/28 03:47:08;;;;;;;4.88;2.35;;;;;;;;;;5093318;28;20024;-76
2022/12/28 03:49:53;;;;;;;4.80;2.20;;;;;;;;;;5079860;28;20027;-76
2022/12/28 03:52:39;;;;;;;7.80;2.53;;;;;;;;;;5078693;28;20024;-78
2022/12/28 03:55:25;;;;;;;7.38;2.80;;;;;;;;;;5094064;28;20027;-76
2022/12/28 03:58:11;;;;;;;11.20;3.17;;;;;;;;;;5094248;28;20035;-76
2022/12/28 04:00:56;;;;;;;6.78;2.65;;;;;;;;;;5093633;28;20051;-75
2022/12/28 04:03:42;;;;;;;5.32;2.47;;;;;;;;;;5094883;28;20061;-75
2022/12/28 04:06:28;;;;;;;4.78;2.35;;;;;;;;;;5079298;28;20228;-75
2022/12/28 04:09:14;;;;;;;10.13;2.95;;;;;;;;;;5087614;28;20024;-76
2022/12/28 04:11:59;;;;;;;6.28;2.45;;;;;;;;;;5078568;28;20073;-76
2022/12/28 04:14:45;;;;;;;5.85;2.80;;;;;;;;;;5093745;28;20042;-76
2022/12/28 04:17:31;;;;;;;5.57;2.40;;;;;;;;;;5078255;28;20060;-75
2022/12/28 04:20:16;;;;;;;5.93;2.78;;;;;;;;;;5093971;28;20445;-76
2022/12/28 04:23:02;;;;;;;5.70;2.38;;;;;;;;;;5093743;28;20024;-76
2022/12/28 04:25:57;;;;;;;5.43;2.63;;;;;;;;;;5093950;28;20027;-76
2022/12/28 04:28:43;;;;;;;5.53;2.42;;;;;;;;;;5078633;28;20020;-76
2022/12/28 04:31:29;;;;;;;6.10;2.50;;;;;;;;;;5093994;28;20089;-76
2022/12/28 04:34:15;;;;;;;7.65;2.65;;;;;;;;;;5093620;28;20023;-75
2022/12/28 04:37:00;;;;;;;4.55;2.53;;;;;;;;;;5093850;28;20017;-75
2022/12/28 04:39:46;;;;;;;8.60;3.13;;;;;;;;;;5093687;28;20024;-76
2022/12/28 04:42:31;;;;;;;5.57;2.67;;;;;;;;;;5093434;28;20024;-75
2022/12/28 04:45:17;;;;;;;5.70;2.80;;;;;;;;;;5094511;28;20331;-76
2022/12/28 04:48:03;;;;;;;10.50;4.78;;;;;;;;;;5093165;28;20024;-76
2022/12/28 04:50:48;;;;;;;7.13;3.90;;;;;;;;;;5078617;28;20020;-75
2022/12/28 04:53:37;;;;;;;8.88;3.30;;;;;;;;;;5093509;28;20358;-75
2022/12/28 04:56:24;;;;;;;6.72;2.83;;;;;;;;;;5093417;28;20030;-75
2022/12/28 04:59:09;;;;;;;6.00;2.65;;;;;;;;;;5094861;28;20020;-76
2022/12/28 05:01:55;;;;;;;11.50;2.90;;;;;;;;;;5097094;28;20079;-76
2022/12/28 05:04:40;;;;;;;6.80;2.70;;;;;;;;;;5081571;28;20067;-77
2022/12/28 05:07:26;;;;;;;7.63;3.58;;;;;;;;;;5097522;28;20028;-77
2022/12/28 05:10:12;;;;;;;7.72;4.18;;;;;;;;;;5083172;28;20490;-76
2022/12/28 05:12:58;;;;;;;10.60;4.75;;;;;;;;;;5098026;28;20031;-76
2022/12/28 05:15:43;;;;;;;6.10;3.55;;;;;;;;;;5097897;28;20020;-75
2022/12/28 05:18:29;;;;;;;11.63;3.70;;;;;;;;;;5097245;28;20390;-75
2022/12/28 05:21:16;;;;;;;9.63;3.63;;;;;;;;;;5097281;28;20016;-76
2022/12/28 05:24:01;;;;;;;5.35;3.10;;;;;;;;;;5096212;28;20024;-76
2022/12/28 05:26:47;;;;;;;10.50;4.15;;;;;;;;;;5097052;28;20020;-76
2022/12/28 05:29:32;;;;;;;8.02;3.70;;;;;;;;;;5096966;28;20020;-76
2022/12/28 05:32:18;;;;;;;8.98;3.45;;;;;;;;;;5096850;28;20506;-75
2022/12/28 05:35:04;;;;;;;7.05;2.92;;;;;;;;;;5097365;28;20066;-76
2022/12/28 05:37:49;;;;;;;6.70;2.75;;;;;;;;;;5096007;28;20335;-76
2022/12/28 05:40:35;;;;;;;6.10;3.30;;;;;;;;;;5097166;28;20035;-76
2022/12/28 05:43:20;;;;;;;8.57;2.92;;;;;;;;;;5096485;28;20024;-76
2022/12/28 05:46:07;;;;;;;8.30;3.80;;;;;;;;;;5096598;28;20365;-76
2022/12/28 05:48:54;;;;;;;8.55;4.82;;;;;;;;;;5096352;28;20387;-74
2022/12/28 05:51:39;;;;;;;20.67;9.48;;;;;;;;;;5095489;28;20020;-75
2022/12/28 05:54:25;;;;;;;12.18;5.88;;;;;;;;;;5096033;28;20020;-75
2022/12/28 05:57:10;;;;;;;13.45;6.85;;;;;;;;;;5097245;28;20016;-75
2022/12/28 05:59:56;;;;;;;9.35;4.80;;;;;;;;;;5096414;28;20077;-79
2022/12/28 06:02:42;;;;;;;10.75;4.18;;;;;;;;;;5100311;28;20064;-75
2022/12/28 06:05:27;;;;;;;7.68;3.88;;;;;;;;;;5097855;28;20345;-75
2022/12/28 06:08:13;;;;;;;5.97;3.50;;;;;;;;;;5097093;28;20039;-75
2022/12/28 06:11:00;;;;;;;10.50;4.80;;;;;;;;;;5094779;28;20456;-75
2022/12/28 06:13:45;;;;;;;8.45;3.83;;;;;;;;;;5095922;28;20035;-75
2022/12/28 06:16:33;;;;;;;13.48;4.15;;;;;;;;;;5095906;28;20165;-75
2022/12/28 06:19:18;;;;;;;11.38;4.75;;;;;;;;;;5095469;28;20032;-76
2022/12/28 06:22:04;;;;;;;11.68;5.28;;;;;;;;;;5095770;28;20020;-74
2022/12/28 06:24:49;;;;;;;8.00;4.20;;;;;;;;;;5095044;28;20028;-76
2022/12/28 06:27:35;;;;;;;8.13;4.40;;;;;;;;;;5096242;28;20028;-75
2022/12/28 06:30:20;;;;;;;8.02;4.28;;;;;;;;;;5081809;28;20027;-75
2022/12/28 06:33:06;;;;;;;7.18;3.90;;;;;;;;;;5095747;28;20082;-75
2022/12/28 06:35:51;;;;;;;10.77;4.18;;;;;;;;;;5095117;28;20094;-74
2022/12/28 06:38:37;;;;;;;13.93;4.30;;;;;;;;;;5099924;28;20345;-74
2022/12/28 06:41:23;;;;;;;9.27;4.28;;;;;;;;;;5100552;28;20063;-76
2022/12/28 06:44:09;;;;;;;6.68;3.63;;;;;;;;;;5109777;28;20054;-72
2022/12/28 06:46:55;;;;;;;8.95;4.03;;;;;;;;;;5095346;28;20020;-75
2022/12/28 06:49:41;;;;;;;8.73;4.80;;;;;;;;;;5080672;28;20485;-75
2022/12/28 06:52:26;;;;;;;9.25;4.32;;;;;;;;;;5093909;28;20035;-75
2022/12/28 06:55:12;;;;;;;10.15;4.70;;;;;;;;;;5095348;28;20116;-76
2022/12/28 06:57:57;;;;;;;7.30;3.95;;;;;;;;;;5094780;28;20038;-75
2022/12/28 07:00:43;;;;;;;13.55;4.45;;;;;;;;;;5094593;28;20446;-75
2022/12/28 07:03:28;;;;;;;16.15;4.88;;;;;;;;;;5079886;28;20032;-75
2022/12/28 07:06:15;;;;;;;10.55;3.83;;;;;;;;;;5094306;28;20026;-74
2022/12/28 07:09:02;;;;;;;11.43;4.65;;;;;;;;;;5094603;28;20093;-75
2022/12/28 07:11:49;;;;;;;10.38;3.95;;;;;;;;;;5093959;28;20051;-75
2022/12/28 07:14:34;;;;;;;14.63;4.53;;;;;;;;;;5094238;28;20016;-75
2022/12/28 07:17:20;;;;;;;11.73;4.10;;;;;;;;;;5094347;28;20016;-74
2022/12/28 07:20:06;;;;;;;11.73;4.82;;;;;;;;;;5093809;28;20019;-76
2022/12/28 07:22:52;;;;;;;8.07;4.28;;;;;;;;;;5092968;28;20396;-75
2022/12/28 07:25:37;;;;;;;9.98;4.53;;;;;;;;;;5079625;28;20039;-75
2022/12/28 07:28:23;;;;;;;12.43;4.55;;;;;;;;;;5093449;28;20020;-75
2022/12/28 07:31:29;;;;;;;9.55;4.15;;;;;;;;;;5094013;28;20020;-75
2022/12/28 07:34:14;;;;;;;8.48;4.72;;;;;;;;;;5078870;28;20434;-76
2022/12/28 07:37:00;;;;;;;12.45;3.50;;;;;;;;;;5078859;28;20023;-76
2022/12/28 07:39:46;;;;;;;8.90;3.88;;;;;;;;;;5079869;28;20024;-74
2022/12/28 07:42:31;;;;;;;13.63;4.28;;;;;;;;;;5093567;28;20024;-75
2022/12/28 07:45:17;;;;;;;7.72;3.90;;;;;;;;;;5092924;28;20029;-75
2022/12/28 07:48:02;;;;;;;7.63;4.10;;;;;;;;;;5093508;28;20352;-76
2022/12/28 07:50:48;;;;;;;17.45;4.63;;;;;;;;;;5093888;28;20494;-76
2022/12/28 07:53:34;;;;;;;8.30;3.97;;;;;;;;;;5094181;28;20437;-76
2022/12/28 07:56:20;;;;;;;12.43;4.57;;;;;;;;;;5093130;28;20077;-75
2022/12/28 07:59:05;;;;;;;12.02;5.05;;;;;;;;;;5080246;28;20460;-75
2022/12/28 08:01:51;;;;;;;10.85;4.40;;;;;;;;;;5093171;28;20143;-77
2022/12/28 08:04:37;;;;;;;11.95;3.83;;;;;;;;;;5093623;28;20024;-76
2022/12/28 08:07:22;;;;;;;9.63;4.50;;;;;;;;;;5079784;28;20031;-76
2022/12/28 08:10:08;;;;;;;9.23;3.40;;;;;;;;;;5078706;28;20438;-75
2022/12/28 08:12:54;;;;;;;10.90;4.05;;;;;;;;;;5093761;28;20032;-75
2022/12/28 08:15:39;;;;;;;12.85;3.97;;;;;;;;;;5094041;28;20070;-76
2022/12/28 08:18:25;;;;;;;9.68;3.85;;;;;;;;;;5092325;28;20096;-76
2022/12/28 08:21:12;;;;;;;7.20;3.80;;;;;;;;;;5079294;28;20093;-75
2022/12/28 08:23:58;;;;;;;7.55;3.80;;;;;;;;;;5093371;28;20016;-75
2022/12/28 08:26:44;;;;;;;8.30;4.53;;;;;;;;;;5093577;28;20394;-76
2022/12/28 08:29:29;;;;;;;12.40;4.47;;;;;;;;;;5093672;28;20024;-75
2022/12/28 08:32:15;;;;;;;10.48;4.55;;;;;;;;;;5092800;28;20055;-75
2022/12/28 08:35:01;;;;;;;15.07;4.88;;;;;;;;;;5096152;28;20437;-76
2022/12/28 08:37:46;;;;;;;9.45;3.80;;;;;;;;;;5097886;28;20399;-76
2022/12/28 08:40:32;;;;;;;10.50;3.65;;;;;;;;;;5096346;28;20016;-76
2022/12/28 08:43:17;;;;;;;8.20;3.35;;;;;;;;;;5097551;28;20363;-77
2022/12/28 08:46:05;;;;;;;13.02;3.90;;;;;;;;;;5082043;28;20016;-75
2022/12/28 08:48:51;;;;;;;10.32;4.38;;;;;;;;;;5082144;28;20024;-76
2022/12/28 08:51:40;;;;;;;12.02;4.70;;;;;;;;;;5096426;28;20020;-76
2022/12/28 08:54:26;;;;;;;5.43;3.00;;;;;;;;;;5096821;28;20067;-75
2022/12/28 08:57:11;;;;;;;9.48;4.13;;;;;;;;;;5097055;28;20024;-75
2022/12/28 08:59:57;;;;;;;12.43;5.80;;;;;;;;;;5096807;28;20103;-75
2022/12/28 09:02:42;;;;;;;9.18;3.58;;;;;;;;;;5095783;28;20382;-75
2022/12/28 09:05:28;;;;;;;13.35;4.18;;;;;;;;;;5081486;28;20031;-75
2022/12/28 09:08:14;;;;;;;10.90;3.83;;;;;;;;;;5082086;28;20479;-75
2022/12/28 09:11:00;;;;;;;7.43;3.78;;;;;;;;;;5082595;28;20020;-75
2022/12/28 09:13:46;;;;;;;6.75;3.50;;;;;;;;;;5096401;28;20111;-75
2022/12/28 09:16:32;;;;;;;9.30;3.70;;;;;;;;;;5097272;28;20512;-75
2022/12/28 09:19:17;;;;;;;21.63;9.15;;;;;;;;;;5082769;28;20093;-75
2022/12/28 09:22:03;;;;;;;54.42;25.77;;;;;;;;;;5081719;28;20087;-75
2022/12/28 09:24:48;;;;;;;51.28;27.05;;;;;;;;;;5095717;28;20105;-75
2022/12/28 09:27:34;;;;;;;14.23;6.30;;;;;;;;;;5096529;28;20055;-75
2022/12/28 09:30:20;;;;;;;6.78;3.70;;;;;;;;;;5096405;28;20011;-75
2022/12/28 09:36:09;;;;;;;7.25;2.97;;;;;;;;;;5097613;28;20165;-75
2022/12/28 09:38:55;;;;;;;10.85;3.88;;;;;;;;;;5081494;28;20071;-75
2022/12/28 09:41:47;;;;;;;9.10;3.38;;;;;;;;;;5095734;28;20028;-75
2022/12/28 09:44:56;;;;;;;8.05;3.13;;;;;;;;;;5080979;28;20081;-75
2022/12/28 09:47:46;;;;;;;7.60;3.30;;;;;;;;;;5080796;28;20030;-75
2022/12/28 09:50:33;;;;;;;8.05;3.45;;;;;;;;;;5096115;28;20016;-75
2022/12/28 09:53:28;;;;;;;9.95;4.38;;;;;;;;;;5096537;28;20028;-75
2022/12/28 09:56:19;;;;;;;11.95;4.55;;;;;;;;;;5095712;28;20012;-75
2022/12/28 09:59:06;;;;;;;9.70;3.72;;;;;;;;;;5080848;28;20024;-76
2022/12/28 10:01:54;;;;;;;11.07;3.90;;;;;;;;;;5095165;28;20548;-76
2022/12/28 10:04:40;;;;;;;7.43;4.05;;;;;;;;;;5095700;28;20331;-75
2022/12/28 10:07:26;;;;;;;9.55;3.95;;;;;;;;;;5094896;28;20069;-75
2022/12/28 10:10:22;;;;;;;9.88;4.38;;;;;;;;;;5080998;28;20024;-76
2022/12/28 10:13:14;;;;;;;7.60;4.38;;;;;;;;;;5080914;28;20115;-75
2022/12/28 10:16:00;;;;;;;9.63;4.63;;;;;;;;;;5096694;28;20026;-76
2022/12/28 10:18:46;;;;;;;8.05;4.28;;;;;;;;;;5095220;28;20428;-75
2022/12/28 10:21:32;;;;;;;12.80;4.60;;;;;;;;;;5094726;28;20351;-75
2022/12/28 10:24:18;;;;;;;9.48;3.90;;;;;;;;;;5081434;28;20023;-77
2022/12/28 10:27:07;;;;;;;10.90;4.63;;;;;;;;;;5094699;28;20042;-76
2022/12/28 10:29:52;;;;;;;8.32;4.00;;;;;;;;;;5094651;28;20369;-75
2022/12/28 10:32:47;;;;;;;6.60;4.55;;;;;;;;;;5095202;28;20023;-76
2022/12/28 10:35:47;;;;;;;5.75;4.40;;;;;;;;;;5095482;28;20022;-75
2022/12/28 10:38:33;;;;;;;7.60;4.35;;;;;;;;;;5095171;28;20027;-76
2022/12/28 10:41:19;;;;;;;9.45;4.78;;;;;;;;;;5081323;28;20035;-75
2022/12/28 10:44:13;;;;;;;7.25;4.63;;;;;;;;;;5095304;28;20116;-75
2022/12/28 10:46:59;;;;;;;10.35;4.65;;;;;;;;;;5095441;28;20020;-75
2022/12/28 10:49:49;;;;;;;6.80;4.38;;;;;;;;;;5094583;28;20410;-76
2022/12/28 10:52:35;;;;;;;7.78;4.40;;;;;;;;;;5095310;28;20362;-76
2022/12/28 10:55:28;;;;;;;16.15;5.22;;;;;;;;;;5094323;28;20020;-74
2022/12/28 10:58:21;;;;;;;9.02;4.00;;;;;;;;;;5098100;28;20023;-75
2022/12/28 11:01:13;;;;;;;7.20;4.32;;;;;;;;;;5110528;28;20052;-75
2022/12/28 11:04:00;;;;;;;10.57;4.70;;;;;;;;;;5109408;28;20075;-74
2022/12/28 11:06:53;;;;;;;7.30;4.60;;;;;;;;;;5115080;28;20016;-75
2022/12/28 11:09:39;;;;;;;7.47;4.30;;;;;;;;;;5101918;28;20028;-76
2022/12/28 11:12:26;;;;;;;6.80;4.18;;;;;;;;;;5097196;28;20047;-76
2022/12/28 11:15:13;;;;;;;7.80;4.35;;;;;;;;;;5082838;28;20020;-76
2022/12/28 11:18:00;;;;;;;7.13;3.72;;;;;;;;;;5096820;28;20031;-75
2022/12/28 11:20:52;;;;;;;7.68;4.20;;;;;;;;;;5095772;28;20057;-74
2022/12/28 11:23:38;;;;;;;9.40;4.28;;;;;;;;;;5095972;28;20024;-75
2022/12/28 11:26:25;;;;;;;7.28;4.07;;;;;;;;;;5108525;28;20086;-74
2022/12/28 11:29:13;;;;;;;6.40;3.92;;;;;;;;;;5113578;28;20016;-75
2022/12/28 11:32:02;;;;;;;7.85;4.28;;;;;;;;;;5098500;28;20024;-76
2022/12/28 11:34:48;;;;;;;6.65;3.97;;;;;;;;;;5111417;28;20075;-76
2022/12/28 11:37:33;;;;;;;7.22;4.43;;;;;;;;;;5115135;28;20031;-76
2022/12/28 11:40:38;;;;;;;10.60;5.20;;;;;;;;;;5101960;28;20020;-76
2022/12/28 11:43:30;;;;;;;6.57;4.00;;;;;;;;;;5100309;28;20045;-75
2022/12/28 11:46:19;;;;;;;6.70;4.05;;;;;;;;;;5114801;28;20032;-75
2022/12/28 11:49:25;;;;;;;6.03;4.15;;;;;;;;;;5100390;28;20008;-76
2022/12/28 11:52:14;;;;;;;6.57;4.00;;;;;;;;;;5114678;28;20079;-75
2022/12/28 11:55:19;;;;;;;5.75;3.50;;;;;;;;;;5114831;28;20035;-75
2022/12/28 11:58:23;;;;;;;6.03;3.83;;;;;;;;;;5094428;28;20107;-76
2022/12/28 12:01:32;;;;;;;5.88;4.50;;;;;;;;;;5085176;28;20051;-75
2022/12/28 12:04:25;;;;;;;7.80;4.40;;;;;;;;;;5095787;28;20028;-76
2022/12/28 12:07:15;;;;;;;5.75;4.35;;;;;;;;;;5080766;28;20509;-76
2022/12/28 12:10:10;;;;;;;9.90;4.50;;;;;;;;;;5093539;28;20035;-75
2022/12/28 12:12:56;;;;;;;5.70;4.05;;;;;;;;;;5095090;28;20020;-76
2022/12/28 12:15:43;;;;;;;8.90;4.80;;;;;;;;;;5079567;28;20016;-76
2022/12/28 12:18:31;;;;;;;4.97;3.70;;;;;;;;;;5094995;28;20020;-76
2022/12/28 12:21:31;;;;;;;5.93;4.05;;;;;;;;;;5080273;28;20464;-75
2022/12/28 12:24:25;;;;;;;13.48;5.28;;;;;;;;;;5094575;28;20031;-76
2022/12/28 12:27:20;;;;;;;8.27;4.03;;;;;;;;;;5096279;28;20331;-76
2022/12/28 12:30:16;;;;;;;9.35;3.90;;;;;;;;;;5079627;28;20449;-76
2022/12/28 12:33:04;;;;;;;10.88;4.20;;;;;;;;;;5079649;28;20163;-76
2022/12/28 12:35:55;;;;;;;5.97;4.03;;;;;;;;;;5094250;28;20020;-75
2022/12/28 12:39:02;;;;;;;8.25;4.53;;;;;;;;;;5080051;28;20020;-76
2022/12/28 12:41:50;;;;;;;11.68;5.53;;;;;;;;;;5094320;28;20062;-76
2022/12/28 12:44:47;;;;;;;10.32;5.28;;;;;;;;;;5094469;28;20468;-76
2022/12/28 12:47:35;;;;;;;11.15;5.63;;;;;;;;;;5093561;28;20510;-75
2022/12/28 12:50:32;;;;;;;7.00;4.50;;;;;;;;;;5094217;28;20016;-77
2022/12/28 12:53:20;;;;;;;5.82;4.32;;;;;;;;;;5093249;28;20024;-77
2022/12/28 12:56:28;;;;;;;7.53;5.03;;;;;;;;;;5094213;28;20020;-75
2022/12/28 12:59:32;;;;;;;5.55;4.10;;;;;;;;;;5079665;28;20415;-76
2022/12/28 13:02:31;;;;;;;6.53;4.90;;;;;;;;;;5094037;28;20454;-76
2022/12/28 13:05:18;;;;;;;7.75;4.47;;;;;;;;;;5078786;28;20039;-76
2022/12/28 13:08:04;;;;;;;8.48;6.00;;;;;;;;;;5094193;28;20452;-76
2022/12/28 13:10:50;;;;;;;7.95;5.28;;;;;;;;;;5078728;28;20413;-76
2022/12/28 13:13:37;;;;;;;8.13;5.07;;;;;;;;;;5079736;28;20354;-75
2022/12/28 13:16:24;;;;;;;8.32;4.65;;;;;;;;;;5079612;28;20024;-76
2022/12/28 13:19:17;;;;;;;7.95;4.78;;;;;;;;;;5092410;28;20074;-75
2022/12/28 13:22:02;;;;;;;10.90;6.32;;;;;;;;;;5082530;28;20357;-76
2022/12/28 13:24:48;;;;;;;13.93;5.57;;;;;;;;;;5096712;28;20027;-75
2022/12/28 13:27:34;;;;;;;6.93;4.97;;;;;;;;;;5097029;28;20028;-76
2022/12/28 13:30:21;;;;;;;6.65;5.03;;;;;;;;;;5081546;28;20034;-75
2022/12/28 13:33:18;;;;;;;10.05;6.00;;;;;;;;;;5082890;28;20020;-75
2022/12/28 13:36:16;;;;;;;11.10;5.22;;;;;;;;;;5082473;28;20066;-75
2022/12/28 13:39:03;;;;;;;13.63;5.30;;;;;;;;;;5096461;28;20396;-76
2022/12/28 13:41:53;;;;;;;13.52;6.68;;;;;;;;;;5096253;28;20442;-75
2022/12/28 13:44:38;;;;;;;12.57;7.07;;;;;;;;;;5081575;28;20028;-76
2022/12/28 13:47:39;;;;;;;12.48;5.88;;;;;;;;;;5095479;28;20422;-75
2022/12/28 13:50:30;;;;;;;12.65;5.90;;;;;;;;;;5096900;28;20032;-76
2022/12/28 13:53:19;;;;;;;7.82;4.60;;;;;;;;;;5080415;28;20023;-76
2022/12/28 13:56:06;;;;;;;12.75;5.40;;;;;;;;;;5096581;28;20350;-75
2022/12/28 13:58:54;;;;;;;9.25;5.63;;;;;;;;;;5096230;28;20031;-76
2022/12/28 14:01:41;;;;;;;5.93;4.40;;;;;;;;;;5080652;28;20044;-76
2022/12/28 14:04:28;;;;;;;10.88;5.40;;;;;;;;;;5096489;28;20024;-75
2022/12/28 14:07:15;;;;;;;11.57;6.00;;;;;;;;;;5095548;28;20036;-75
2022/12/28 14:10:01;;;;;;;17.77;6.18;;;;;;;;;;5095339;28;20031;-75
2022/12/28 14:12:48;;;;;;;7.93;5.38;;;;;;;;;;5094632;28;20103;-76
2022/12/28 14:15:34;;;;;;;14.07;6.20;;;;;;;;;;5096927;28;20089;-76
2022/12/28 14:18:20;;;;;;;12.98;5.30;;;;;;;;;;5097092;28;20137;-76
2022/12/28 14:21:06;;;;;;;8.80;4.88;;;;;;;;;;5095562;28;20035;-77
2022/12/28 14:24:01;;;;;;;10.57;5.15;;;;;;;;;;5081176;28;20044;-76
2022/12/28 14:26:54;;;;;;;7.55;4.53;;;;;;;;;;5081703;28;20020;-75
2022/12/28 14:29:39;;;;;;;8.63;4.10;;;;;;;;;;5094947;28;20020;-75
2022/12/28 14:32:25;;;;;;;5.75;3.72;;;;;;;;;;5079357;28;20377;-75
2022/12/28 14:35:19;;;;;;;5.90;4.05;;;;;;;;;;5095236;28;20035;-75
2022/12/28 14:38:04;;;;;;;11.25;5.15;;;;;;;;;;5095302;28;20110;-76
2022/12/28 14:40:51;;;;;;;10.50;4.80;;;;;;;;;;5094802;28;20031;-76
2022/12/28 14:43:37;;;;;;;8.38;5.40;;;;;;;;;;5094283;28;20357;-76
2022/12/28 14:46:33;;;;;;;9.65;5.95;;;;;;;;;;5080442;28;20012;-76
2022/12/28 14:49:28;;;;;;;10.88;6.03;;;;;;;;;;5095168;28;20028;-76
2022/12/28 14:52:17;;;;;;;10.05;5.70;;;;;;;;;;5080932;28;20028;-75
2022/12/28 14:55:17;;;;;;;10.80;6.22;;;;;;;;;;5095812;28;20012;-76
2022/12/28 14:58:05;;;;;;;8.85;6.43;;;;;;;;;;5094614;28;20012;-77
2022/12/28 15:00:58;;;;;;;14.18;6.80;;;;;;;;;;5079906;28;20097;-75
2022/12/28 15:03:47;;;;;;;12.18;7.85;;;;;;;;;;5095100;28;20024;-76
2022/12/28 15:06:33;;;;;;;16.77;7.97;;;;;;;;;;5080067;28;20012;-76
2022/12/28 15:09:19;;;;;;;24.55;9.95;;;;;;;;;;5093895;28;20036;-77
2022/12/28 15:12:10;;;;;;;19.17;10.38;;;;;;;;;;5094364;28;20077;-75
2022/12/28 15:14:56;;;;;;;25.98;11.93;;;;;;;;;;5094595;28;20028;-76
2022/12/28 15:17:41;;;;;;;27.95;12.93;;;;;;;;;;5093732;28;20119;-76
2022/12/28 15:20:27;;;;;;;19.75;10.75;;;;;;;;;;5094015;28;20373;-75
2022/12/28 15:23:13;;;;;;;14.63;9.48;;;;;;;;;;5093697;28;20051;-75
2022/12/28 15:25:58;;;;;;;19.58;10.35;;;;;;;;;;5094178;28;20023;-76
2022/12/28 15:28:44;;;;;;;18.92;10.30;;;;;;;;;;5092567;28;20016;-75
2022/12/28 15:31:29;;;;;;;22.48;11.65;;;;;;;;;;5093037;28;20053;-75
2022/12/28 15:34:15;;;;;;;24.08;11.07;;;;;;;;;;5079107;28;20034;-75
2022/12/28 15:37:01;;;;;;;27.27;12.40;;;;;;;;;;5091334;28;20017;-78
2022/12/28 15:39:46;;;;;;;26.13;13.75;;;;;;;;;;5094811;28;20353;-75
2022/12/28 15:42:32;;;;;;;30.27;13.40;;;;;;;;;;5108747;28;20016;-76
2022/12/28 15:45:18;;;;;;;25.90;13.80;;;;;;;;;;5094316;28;20012;-77
2022/12/28 15:48:03;;;;;;;31.48;13.32;;;;;;;;;;5094375;28;20039;-77
2022/12/28 15:50:49;;;;;;;26.02;15.80;;;;;;;;;;5079417;28;20065;-74
2022/12/28 15:53:35;;;;;;;27.02;15.80;;;;;;;;;;5093354;28;20012;-76
2022/12/28 15:56:20;;;;;;;32.00;16.58;;;;;;;;;;5092895;28;20034;-76
2022/12/28 15:59:09;;;;;;;32.67;16.88;;;;;;;;;;5092457;28;20043;-76
2022/12/28 16:01:55;;;;;;;36.92;18.00;;;;;;;;;;5092467;28;20044;-76
2022/12/28 16:04:41;;;;;;;43.65;19.65;;;;;;;;;;5094230;28;20081;-76
2022/12/28 16:07:26;;;;;;;35.65;16.85;;;;;;;;;;5098722;28;20365;-76
2022/12/28 16:10:12;;;;;;;31.27;16.70;;;;;;;;;;5095047;28;20028;-76
2022/12/28 16:12:58;;;;;;;30.10;15.82;;;;;;;;;;5093845;28;20327;-76
2022/12/28 16:15:43;;;;;;;35.58;16.90;;;;;;;;;;5093804;28;20020;-76
2022/12/28 16:18:29;;;;;;;30.98;15.48;;;;;;;;;;5092191;28;20012;-76
2022/12/28 16:21:15;;;;;;;27.55;14.77;;;;;;;;;;5079121;28;20016;-76
2022/12/28 16:24:00;;;;;;;36.65;19.08;;;;;;;;;;5093175;28;20035;-76
2022/12/28 16:26:46;;;;;;;51.35;27.05;;;;;;;;;;5078497;28;20031;-76
2022/12/28 16:29:31;;;;;;;54.28;28.58;;;;;;;;;;5092320;28;20031;-74
2022/12/28 16:32:17;;;;;;;47.10;25.63;;;;;;;;;;5078653;28;20039;-75
2022/12/28 16:35:03;;;;;;;55.10;25.00;;;;;;;;;;5078311;28;20013;-76
2022/12/28 16:37:50;;;;;;;53.17;25.73;;;;;;;;;;5092091;28;20081;-75
2022/12/28 16:40:35;;;;;;;58.47;25.58;;;;;;;;;;5093257;28;20042;-75
2022/12/28 16:43:21;;;;;;;54.65;27.40;;;;;;;;;;5079275;28;20373;-74
2022/12/28 16:46:07;;;;;;;76.78;32.53;;;;;;;;;;5091901;28;20020;-75
2022/12/28 16:48:53;;;;;;;70.45;33.75;;;;;;;;;;5078464;28;20457;-74
2022/12/28 16:51:43;;;;;;;79.50;37.90;;;;;;;;;;5092760;28;20016;-75
2022/12/28 16:54:29;;;;;;;76.75;40.92;;;;;;;;;;5093265;28;20020;-75
2022/12/28 16:57:15;;;;;;;72.63;36.13;;;;;;;;;;5081865;28;20016;-74
2022/12/28 17:00:00;;;;;;;73.95;37.33;;;;;;;;;;5083027;28;20047;-75
2022/12/28 17:02:46;;;;;;;83.53;44.97;;;;;;;;;;5077553;28;20057;-74
2022/12/28 17:05:35;;;;;;;127.35;66.05;;;;;;;;;;5079264;28;20025;-75